sensor_id;sensor_type;location;lat;lon;timestamp;temperature;humidity
46926;DHT22;32667;48.248;-1.700;2023-05-07T00:02:06;17.20;69.20
46926;DHT22;32667;48.248;-1.700;2023-05-07T00:04:35;17.20;69.10
46926;DHT22;32667;48.248;-1.700;2023-05-07T00:07:06;17.20;69.20
46926;DHT22;32667;48.248;-1.700;2023-05-07T00:09:34;17.10;69.10
46926;DHT22;32667;48.248;-1.700;2023-05-07T00:12:00;17.10;69.20
46926;DHT22;32667;48.248;-1.700;2023-05-07T00:14:26;17.10;69.20
46926;DHT22;32667;48.248;-1.700;2023-05-07T00:16:57;17.00;69.30
46926;DHT22;32667;48.248;-1.700;2023-05-07T00:19:28;17.00;69.30
46926;DHT22;32667;48.248;-1.700;2023-05-07T00:21:57;17.00;69.40
46926;DHT22;32667;48.248;-1.700;2023-05-07T00:24:25;17.00;70.00
46926;DHT22;32667;48.248;-1.700;2023-05-07T00:27:01;16.90;69.30
46926;DHT22;32667;48.248;-1.700;2023-05-07T00:29:45;16.90;69.30
46926;DHT22;32667;48.248;-1.700;2023-05-07T00:32:13;16.90;69.20
46926;DHT22;32667;48.248;-1.700;2023-05-07T00:34:45;16.90;69.20
46926;DHT22;32667;48.248;-1.700;2023-05-07T00:37:13;16.90;69.20
46926;DHT22;32667;48.248;-1.700;2023-05-07T00:39:41;16.90;69.20
46926;DHT22;32667;48.248;-1.700;2023-05-07T00:42:12;16.90;69.20
46926;DHT22;32667;48.248;-1.700;2023-05-07T00:44:41;16.90;69.20
46926;DHT22;32667;48.248;-1.700;2023-05-07T00:47:07;16.80;69.20
46926;DHT22;32667;48.248;-1.700;2023-05-07T00:49:45;16.80;69.30
46926;DHT22;32667;48.248;-1.700;2023-05-07T00:52:13;16.80;69.30
46926;DHT22;32667;48.248;-1.700;2023-05-07T00:54:49;16.80;69.30
46926;DHT22;32667;48.248;-1.700;2023-05-07T00:57:23;16.80;69.40
46926;DHT22;32667;48.248;-1.700;2023-05-07T00:59:51;16.70;70.00
46926;DHT22;32667;48.248;-1.700;2023-05-07T01:02:19;16.80;69.40
46926;DHT22;32667;48.248;-1.700;2023-05-07T01:04:45;16.80;69.40
46926;DHT22;32667;48.248;-1.700;2023-05-07T01:07:11;16.70;69.40
46926;DHT22;32667;48.248;-1.700;2023-05-07T01:09:39;16.70;69.30
46926;DHT22;32667;48.248;-1.700;2023-05-07T01:12:06;16.70;69.30
46926;DHT22;32667;48.248;-1.700;2023-05-07T01:14:35;16.70;69.40
46926;DHT22;32667;48.248;-1.700;2023-05-07T01:17:01;16.70;69.40
46926;DHT22;32667;48.248;-1.700;2023-05-07T01:19:30;16.70;69.50
46926;DHT22;32667;48.248;-1.700;2023-05-07T01:22:03;16.70;69.50
46926;DHT22;32667;48.248;-1.700;2023-05-07T01:24:32;16.70;69.40
46926;DHT22;32667;48.248;-1.700;2023-05-07T01:26:58;16.70;69.40
46926;DHT22;32667;48.248;-1.700;2023-05-07T01:29:26;16.70;69.30
46926;DHT22;32667;48.248;-1.700;2023-05-07T01:31:52;16.80;69.60
46926;DHT22;32667;48.248;-1.700;2023-05-07T01:34:22;16.70;69.30
46926;DHT22;32667;48.248;-1.700;2023-05-07T01:36:48;16.70;69.40
46926;DHT22;32667;48.248;-1.700;2023-05-07T01:39:17;16.70;69.40
46926;DHT22;32667;48.248;-1.700;2023-05-07T01:41:46;16.70;69.30
46926;DHT22;32667;48.248;-1.700;2023-05-07T01:44:12;16.70;69.30
46926;DHT22;32667;48.248;-1.700;2023-05-07T01:46:41;16.70;69.30
46926;DHT22;32667;48.248;-1.700;2023-05-07T01:49:08;16.70;69.30
46926;DHT22;32667;48.248;-1.700;2023-05-07T01:51:36;16.70;69.30
46926;DHT22;32667;48.248;-1.700;2023-05-07T01:54:02;16.70;69.40
46926;DHT22;32667;48.248;-1.700;2023-05-07T01:56:30;16.70;69.50
46926;DHT22;32667;48.248;-1.700;2023-05-07T01:58:56;16.70;69.50
46926;DHT22;32667;48.248;-1.700;2023-05-07T02:01:22;16.60;69.50
46926;DHT22;32667;48.248;-1.700;2023-05-07T02:03:50;16.70;69.50
46926;DHT22;32667;48.248;-1.700;2023-05-07T02:06:23;16.70;69.50
46926;DHT22;32667;48.248;-1.700;2023-05-07T02:08:51;16.70;69.40
46926;DHT22;32667;48.248;-1.700;2023-05-07T02:11:17;16.70;69.40
46926;DHT22;32667;48.248;-1.700;2023-05-07T02:13:42;16.70;69.30
46926;DHT22;32667;48.248;-1.700;2023-05-07T02:16:20;16.70;69.30
46926;DHT22;32667;48.248;-1.700;2023-05-07T02:18:49;16.70;69.30
46926;DHT22;32667;48.248;-1.700;2023-05-07T02:21:15;16.70;69.40
46926;DHT22;32667;48.248;-1.700;2023-05-07T02:23:46;16.70;69.40
46926;DHT22;32667;48.248;-1.700;2023-05-07T02:26:12;16.70;69.50
46926;DHT22;32667;48.248;-1.700;2023-05-07T02:28:40;16.60;69.50
46926;DHT22;32667;48.248;-1.700;2023-05-07T02:31:08;16.60;69.50
46926;DHT22;32667;48.248;-1.700;2023-05-07T02:33:34;16.60;69.50
46926;DHT22;32667;48.248;-1.700;2023-05-07T02:36:09;16.60;69.60
46926;DHT22;32667;48.248;-1.700;2023-05-07T02:38:35;16.60;70.20
46926;DHT22;32667;48.248;-1.700;2023-05-07T02:41:03;16.60;69.60
46926;DHT22;32667;48.248;-1.700;2023-05-07T02:43:31;16.60;69.70
46926;DHT22;32667;48.248;-1.700;2023-05-07T02:46:06;16.60;69.60
46926;DHT22;32667;48.248;-1.700;2023-05-07T02:48:35;16.60;69.40
46926;DHT22;32667;48.248;-1.700;2023-05-07T02:51:06;16.70;70.00
46926;DHT22;32667;48.248;-1.700;2023-05-07T02:53:32;16.70;69.30
46926;DHT22;32667;48.248;-1.700;2023-05-07T02:55:59;16.60;69.40
46926;DHT22;32667;48.248;-1.700;2023-05-07T02:58:26;16.60;69.40
46926;DHT22;32667;48.248;-1.700;2023-05-07T03:00:54;16.60;69.40
46926;DHT22;32667;48.248;-1.700;2023-05-07T03:03:22;16.60;69.40
46926;DHT22;32667;48.248;-1.700;2023-05-07T03:05:48;16.60;69.40
46926;DHT22;32667;48.248;-1.700;2023-05-07T03:08:14;16.60;69.50
46926;DHT22;32667;48.248;-1.700;2023-05-07T03:10:39;16.60;69.40
46926;DHT22;32667;48.248;-1.700;2023-05-07T03:13:05;16.60;69.40
46926;DHT22;32667;48.248;-1.700;2023-05-07T03:15:38;16.60;69.30
46926;DHT22;32667;48.248;-1.700;2023-05-07T03:18:11;16.60;69.30
46926;DHT22;32667;48.248;-1.700;2023-05-07T03:20:37;16.60;69.30
46926;DHT22;32667;48.248;-1.700;2023-05-07T03:23:03;16.70;69.30
46926;DHT22;32667;48.248;-1.700;2023-05-07T03:25:29;16.70;69.30
46926;DHT22;32667;48.248;-1.700;2023-05-07T03:27:57;16.60;69.30
46926;DHT22;32667;48.248;-1.700;2023-05-07T03:30:27;16.60;69.40
46926;DHT22;32667;48.248;-1.700;2023-05-07T03:32:55;16.60;69.50
46926;DHT22;32667;48.248;-1.700;2023-05-07T03:35:21;16.60;69.60
46926;DHT22;32667;48.248;-1.700;2023-05-07T03:37:47;16.60;69.50
46926;DHT22;32667;48.248;-1.700;2023-05-07T03:40:13;16.60;69.50
46926;DHT22;32667;48.248;-1.700;2023-05-07T03:42:38;16.60;69.50
46926;DHT22;32667;48.248;-1.700;2023-05-07T03:45:07;16.60;69.40
46926;DHT22;32667;48.248;-1.700;2023-05-07T03:47:35;16.60;69.40
46926;DHT22;32667;48.248;-1.700;2023-05-07T03:50:03;16.50;69.40
46926;DHT22;32667;48.248;-1.700;2023-05-07T03:52:35;16.50;69.40
46926;DHT22;32667;48.248;-1.700;2023-05-07T03:55:00;16.60;69.50
46926;DHT22;32667;48.248;-1.700;2023-05-07T03:57:26;16.50;69.40
46926;DHT22;32667;48.248;-1.700;2023-05-07T03:59:54;16.60;69.40
46926;DHT22;32667;48.248;-1.700;2023-05-07T04:02:20;16.60;70.00
46926;DHT22;32667;48.248;-1.700;2023-05-07T04:04:48;16.60;69.30
46926;DHT22;32667;48.248;-1.700;2023-05-07T04:07:14;16.60;69.30
46926;DHT22;32667;48.248;-1.700;2023-05-07T04:09:40;16.60;69.30
46926;DHT22;32667;48.248;-1.700;2023-05-07T04:12:08;16.50;69.30
46926;DHT22;32667;48.248;-1.700;2023-05-07T04:14:34;16.50;69.40
46926;DHT22;32667;48.248;-1.700;2023-05-07T04:17:02;16.50;70.10
46926;DHT22;32667;48.248;-1.700;2023-05-07T04:19:28;16.50;69.60
46926;DHT22;32667;48.248;-1.700;2023-05-07T04:21:56;16.50;69.50
46926;DHT22;32667;48.248;-1.700;2023-05-07T04:24:22;16.50;69.50
46926;DHT22;32667;48.248;-1.700;2023-05-07T04:26:49;16.50;69.50
46926;DHT22;32667;48.248;-1.700;2023-05-07T04:29:19;16.50;69.40
46926;DHT22;32667;48.248;-1.700;2023-05-07T04:31:47;16.50;69.40
46926;DHT22;32667;48.248;-1.700;2023-05-07T04:34:15;16.60;69.40
46926;DHT22;32667;48.248;-1.700;2023-05-07T04:36:43;16.60;69.30
46926;DHT22;32667;48.248;-1.700;2023-05-07T04:39:09;16.60;69.20
46926;DHT22;32667;48.248;-1.700;2023-05-07T04:41:39;16.70;69.20
46926;DHT22;32667;48.248;-1.700;2023-05-07T04:44:12;16.70;69.00
46926;DHT22;32667;48.248;-1.700;2023-05-07T04:46:37;16.80;69.00
46926;DHT22;32667;48.248;-1.700;2023-05-07T04:49:03;16.80;68.90
46926;DHT22;32667;48.248;-1.700;2023-05-07T04:51:36;16.90;68.90
46926;DHT22;32667;48.248;-1.700;2023-05-07T04:54:05;16.90;68.90
46926;DHT22;32667;48.248;-1.700;2023-05-07T04:56:31;16.90;68.80
46926;DHT22;32667;48.248;-1.700;2023-05-07T04:58:57;16.90;68.80
46926;DHT22;32667;48.248;-1.700;2023-05-07T05:01:23;16.90;68.80
46926;DHT22;32667;48.248;-1.700;2023-05-07T05:03:56;16.90;68.80
46926;DHT22;32667;48.248;-1.700;2023-05-07T05:06:21;16.90;68.80
46926;DHT22;32667;48.248;-1.700;2023-05-07T05:08:47;16.90;68.80
46926;DHT22;32667;48.248;-1.700;2023-05-07T05:11:15;16.90;68.90
46926;DHT22;32667;48.248;-1.700;2023-05-07T05:13:44;16.90;69.00
46926;DHT22;32667;48.248;-1.700;2023-05-07T05:16:12;16.90;69.00
46926;DHT22;32667;48.248;-1.700;2023-05-07T05:18:41;16.90;69.00
46926;DHT22;32667;48.248;-1.700;2023-05-07T05:21:12;16.90;69.00
46926;DHT22;32667;48.248;-1.700;2023-05-07T05:23:40;16.90;69.00
46926;DHT22;32667;48.248;-1.700;2023-05-07T05:26:05;16.90;68.90
46926;DHT22;32667;48.248;-1.700;2023-05-07T05:28:33;17.00;68.90
46926;DHT22;32667;48.248;-1.700;2023-05-07T05:31:01;17.00;68.80
46926;DHT22;32667;48.248;-1.700;2023-05-07T05:33:27;17.00;68.80
46926;DHT22;32667;48.248;-1.700;2023-05-07T05:35:54;17.00;68.80
46926;DHT22;32667;48.248;-1.700;2023-05-07T05:38:22;17.00;68.80
46926;DHT22;32667;48.248;-1.700;2023-05-07T05:40:50;17.00;68.80
46926;DHT22;32667;48.248;-1.700;2023-05-07T05:43:16;17.10;68.80
46926;DHT22;32667;48.248;-1.700;2023-05-07T05:45:42;17.10;68.80
46926;DHT22;32667;48.248;-1.700;2023-05-07T05:48:07;17.00;68.80
46926;DHT22;32667;48.248;-1.700;2023-05-07T05:50:34;17.00;68.90
46926;DHT22;32667;48.248;-1.700;2023-05-07T05:53:25;17.00;68.90
46926;DHT22;32667;48.248;-1.700;2023-05-07T05:55:50;17.00;68.90
46926;DHT22;32667;48.248;-1.700;2023-05-07T05:58:16;17.00;68.90
46926;DHT22;32667;48.248;-1.700;2023-05-07T06:00:51;17.00;68.90
46926;DHT22;32667;48.248;-1.700;2023-05-07T06:03:20;17.00;68.90
46926;DHT22;32667;48.248;-1.700;2023-05-07T06:05:46;17.00;69.50
46926;DHT22;32667;48.248;-1.700;2023-05-07T06:08:11;16.90;68.90
46926;DHT22;32667;48.248;-1.700;2023-05-07T06:10:37;16.90;69.60
46926;DHT22;32667;48.248;-1.700;2023-05-07T06:13:05;16.90;69.60
46926;DHT22;32667;48.248;-1.700;2023-05-07T06:15:31;16.80;69.00
46926;DHT22;32667;48.248;-1.700;2023-05-07T06:17:57;16.80;69.10
46926;DHT22;32667;48.248;-1.700;2023-05-07T06:20:29;16.80;69.20
46926;DHT22;32667;48.248;-1.700;2023-05-07T06:22:58;16.80;69.20
46926;DHT22;32667;48.248;-1.700;2023-05-07T06:25:23;16.70;69.20
46926;DHT22;32667;48.248;-1.700;2023-05-07T06:28:06;16.70;69.30
46926;DHT22;32667;48.248;-1.700;2023-05-07T06:30:34;16.70;69.30
46926;DHT22;32667;48.248;-1.700;2023-05-07T06:33:00;16.70;69.30
46926;DHT22;32667;48.248;-1.700;2023-05-07T06:35:31;16.60;69.20
46926;DHT22;32667;48.248;-1.700;2023-05-07T06:38:07;16.70;69.30
46926;DHT22;32667;48.248;-1.700;2023-05-07T06:40:32;16.70;69.20
46926;DHT22;32667;48.248;-1.700;2023-05-07T06:43:00;16.70;69.20
46926;DHT22;32667;48.248;-1.700;2023-05-07T06:45:26;16.70;69.20
46926;DHT22;32667;48.248;-1.700;2023-05-07T06:47:54;16.70;69.20
46926;DHT22;32667;48.248;-1.700;2023-05-07T06:50:24;16.70;69.30
46926;DHT22;32667;48.248;-1.700;2023-05-07T06:52:50;16.60;69.20
46926;DHT22;32667;48.248;-1.700;2023-05-07T06:55:16;16.60;69.20
46926;DHT22;32667;48.248;-1.700;2023-05-07T06:57:44;16.60;69.20
46926;DHT22;32667;48.248;-1.700;2023-05-07T07:00:18;16.60;69.30
46926;DHT22;32667;48.248;-1.700;2023-05-07T07:02:44;16.70;69.30
46926;DHT22;32667;48.248;-1.700;2023-05-07T07:05:19;16.70;69.30
46926;DHT22;32667;48.248;-1.700;2023-05-07T07:07:44;16.70;69.30
46926;DHT22;32667;48.248;-1.700;2023-05-07T07:10:39;16.60;69.20
46926;DHT22;32667;48.248;-1.700;2023-05-07T07:13:11;16.70;69.20
46926;DHT22;32667;48.248;-1.700;2023-05-07T07:15:37;16.70;69.10
46926;DHT22;32667;48.248;-1.700;2023-05-07T07:18:02;16.80;69.00
46926;DHT22;32667;48.248;-1.700;2023-05-07T07:20:30;16.90;68.90
46926;DHT22;32667;48.248;-1.700;2023-05-07T07:22:56;16.90;68.80
46926;DHT22;32667;48.248;-1.700;2023-05-07T07:25:25;16.90;68.70
46926;DHT22;32667;48.248;-1.700;2023-05-07T07:27:50;16.90;68.80
46926;DHT22;32667;48.248;-1.700;2023-05-07T07:30:16;16.90;68.90
46926;DHT22;32667;48.248;-1.700;2023-05-07T07:32:44;16.80;69.00
46926;DHT22;32667;48.248;-1.700;2023-05-07T07:35:10;16.80;69.10
46926;DHT22;32667;48.248;-1.700;2023-05-07T07:37:35;16.70;69.20
46926;DHT22;32667;48.248;-1.700;2023-05-07T07:40:02;16.60;69.20
46926;DHT22;32667;48.248;-1.700;2023-05-07T07:42:31;16.60;69.30
46926;DHT22;32667;48.248;-1.700;2023-05-07T07:44:59;16.60;69.40
46926;DHT22;32667;48.248;-1.700;2023-05-07T07:47:24;16.60;69.50
46926;DHT22;32667;48.248;-1.700;2023-05-07T07:49:50;16.50;69.40
46926;DHT22;32667;48.248;-1.700;2023-05-07T07:52:18;16.50;69.50
46926;DHT22;32667;48.248;-1.700;2023-05-07T07:54:44;16.50;69.50
46926;DHT22;32667;48.248;-1.700;2023-05-07T07:57:10;16.60;69.50
46926;DHT22;32667;48.248;-1.700;2023-05-07T07:59:36;16.60;69.30
46926;DHT22;32667;48.248;-1.700;2023-05-07T08:02:02;16.70;69.30
46926;DHT22;32667;48.248;-1.700;2023-05-07T08:04:27;16.70;69.20
46926;DHT22;32667;48.248;-1.700;2023-05-07T08:07:00;16.80;69.20
46926;DHT22;32667;48.248;-1.700;2023-05-07T08:09:26;16.80;69.00
46926;DHT22;32667;48.248;-1.700;2023-05-07T08:11:55;16.90;69.00
46926;DHT22;32667;48.248;-1.700;2023-05-07T08:14:21;16.90;68.80
46926;DHT22;32667;48.248;-1.700;2023-05-07T08:16:46;16.90;68.90
46926;DHT22;32667;48.248;-1.700;2023-05-07T08:19:17;16.90;68.90
46926;DHT22;32667;48.248;-1.700;2023-05-07T08:21:42;16.80;69.00
46926;DHT22;32667;48.248;-1.700;2023-05-07T08:24:08;16.80;69.20
46926;DHT22;32667;48.248;-1.700;2023-05-07T08:26:34;16.80;69.20
46926;DHT22;32667;48.248;-1.700;2023-05-07T08:29:03;16.90;69.10
46926;DHT22;32667;48.248;-1.700;2023-05-07T08:31:31;17.00;69.00
46926;DHT22;32667;48.248;-1.700;2023-05-07T08:33:57;17.10;68.80
46926;DHT22;32667;48.248;-1.700;2023-05-07T08:36:23;17.20;68.60
46926;DHT22;32667;48.248;-1.700;2023-05-07T08:38:52;17.30;68.50
46926;DHT22;32667;48.248;-1.700;2023-05-07T08:41:22;17.40;68.40
46926;DHT22;32667;48.248;-1.700;2023-05-07T08:43:51;17.50;68.20
46926;DHT22;32667;48.248;-1.700;2023-05-07T08:46:22;17.50;68.00
46926;DHT22;32667;48.248;-1.700;2023-05-07T08:48:51;17.60;68.00
46926;DHT22;32667;48.248;-1.700;2023-05-07T08:51:19;17.70;68.00
46926;DHT22;32667;48.248;-1.700;2023-05-07T08:53:49;17.70;68.00
46926;DHT22;32667;48.248;-1.700;2023-05-07T08:56:15;17.70;68.00
46926;DHT22;32667;48.248;-1.700;2023-05-07T08:58:49;17.80;67.90
46926;DHT22;32667;48.248;-1.700;2023-05-07T09:01:16;17.90;67.80
46926;DHT22;32667;48.248;-1.700;2023-05-07T09:03:44;18.00;67.70
46926;DHT22;32667;48.248;-1.700;2023-05-07T09:06:10;18.00;67.80
46926;DHT22;32667;48.248;-1.700;2023-05-07T09:08:36;18.10;67.80
46926;DHT22;32667;48.248;-1.700;2023-05-07T09:11:05;18.10;67.60
46926;DHT22;32667;48.248;-1.700;2023-05-07T09:13:30;18.20;67.60
46926;DHT22;32667;48.248;-1.700;2023-05-07T09:16:04;18.20;67.60
46926;DHT22;32667;48.248;-1.700;2023-05-07T09:18:35;18.30;67.60
46926;DHT22;32667;48.248;-1.700;2023-05-07T09:21:05;18.30;67.60
46926;DHT22;32667;48.248;-1.700;2023-05-07T09:23:35;18.30;67.60
46926;DHT22;32667;48.248;-1.700;2023-05-07T09:26:03;18.30;67.70
46926;DHT22;32667;48.248;-1.700;2023-05-07T09:28:29;18.30;67.60
46926;DHT22;32667;48.248;-1.700;2023-05-07T09:30:58;18.30;67.60
46926;DHT22;32667;48.248;-1.700;2023-05-07T09:33:27;18.30;67.70
46926;DHT22;32667;48.248;-1.700;2023-05-07T09:35:57;18.30;67.80
46926;DHT22;32667;48.248;-1.700;2023-05-07T09:38:23;18.30;67.90
46926;DHT22;32667;48.248;-1.700;2023-05-07T09:41:08;18.30;68.00
46926;DHT22;32667;48.248;-1.700;2023-05-07T09:43:35;18.20;68.00
46926;DHT22;32667;48.248;-1.700;2023-05-07T09:46:25;18.20;68.10
46926;DHT22;32667;48.248;-1.700;2023-05-07T09:48:57;18.20;68.20
46926;DHT22;32667;48.248;-1.700;2023-05-07T09:53:52;18.10;68.30
46926;DHT22;32667;48.248;-1.700;2023-05-07T09:56:19;18.10;68.30
46926;DHT22;32667;48.248;-1.700;2023-05-07T09:58:51;18.00;68.40
46926;DHT22;32667;48.248;-1.700;2023-05-07T10:01:19;17.90;69.10
46926;DHT22;32667;48.248;-1.700;2023-05-07T10:03:48;17.90;68.70
46926;DHT22;32667;48.248;-1.700;2023-05-07T10:06:19;17.90;68.70
46926;DHT22;32667;48.248;-1.700;2023-05-07T10:08:45;18.00;68.70
46926;DHT22;32667;48.248;-1.700;2023-05-07T10:11:12;18.00;68.60
46926;DHT22;32667;48.248;-1.700;2023-05-07T10:13:41;18.10;68.50
46926;DHT22;32667;48.248;-1.700;2023-05-07T10:16:09;18.10;68.20
46926;DHT22;32667;48.248;-1.700;2023-05-07T10:18:37;18.30;68.20
46926;DHT22;32667;48.248;-1.700;2023-05-07T10:21:26;18.40;68.00
46926;DHT22;32667;48.248;-1.700;2023-05-07T10:24:03;18.50;67.80
46926;DHT22;32667;48.248;-1.700;2023-05-07T10:26:32;18.60;67.60
46926;DHT22;32667;48.248;-1.700;2023-05-07T10:32:42;18.80;67.40
46926;DHT22;32667;48.248;-1.700;2023-05-07T10:35:30;18.80;67.30
46926;DHT22;32667;48.248;-1.700;2023-05-07T10:38:01;18.80;67.40
46926;DHT22;32667;48.248;-1.700;2023-05-07T10:40:27;18.90;67.20
46926;DHT22;32667;48.248;-1.700;2023-05-07T10:45:22;18.90;67.40
46926;DHT22;32667;48.248;-1.700;2023-05-07T10:48:17;18.80;67.50
46926;DHT22;32667;48.248;-1.700;2023-05-07T10:50:43;18.70;67.80
46926;DHT22;32667;48.248;-1.700;2023-05-07T10:53:24;18.70;67.80
46926;DHT22;32667;48.248;-1.700;2023-05-07T10:58:47;18.80;67.70
46926;DHT22;32667;48.248;-1.700;2023-05-07T11:01:52;18.80;67.70
46926;DHT22;32667;48.248;-1.700;2023-05-07T11:04:19;18.90;67.60
46926;DHT22;32667;48.248;-1.700;2023-05-07T11:10:00;18.90;67.60
46926;DHT22;32667;48.248;-1.700;2023-05-07T11:15:07;18.90;67.70
46926;DHT22;32667;48.248;-1.700;2023-05-07T11:17:53;18.90;67.60
46926;DHT22;32667;48.248;-1.700;2023-05-07T11:20:19;19.00;67.60
46926;DHT22;32667;48.248;-1.700;2023-05-07T11:22:46;19.00;68.10
46926;DHT22;32667;48.248;-1.700;2023-05-07T11:25:17;19.00;67.40
46926;DHT22;32667;48.248;-1.700;2023-05-07T11:27:47;19.00;67.60
46926;DHT22;32667;48.248;-1.700;2023-05-07T11:30:22;19.00;67.70
46926;DHT22;32667;48.248;-1.700;2023-05-07T11:32:48;19.00;67.80
46926;DHT22;32667;48.248;-1.700;2023-05-07T11:35:15;18.90;67.80
46926;DHT22;32667;48.248;-1.700;2023-05-07T11:38:15;18.70;68.00
46926;DHT22;32667;48.248;-1.700;2023-05-07T11:40:56;18.60;68.30
46926;DHT22;32667;48.248;-1.700;2023-05-07T11:43:29;18.50;68.50
46926;DHT22;32667;48.248;-1.700;2023-05-07T11:46:05;18.40;68.60
46926;DHT22;32667;48.248;-1.700;2023-05-07T11:48:32;18.40;68.70
46926;DHT22;32667;48.248;-1.700;2023-05-07T11:51:03;18.30;68.70
46926;DHT22;32667;48.248;-1.700;2023-05-07T11:53:40;18.30;68.70
46926;DHT22;32667;48.248;-1.700;2023-05-07T11:56:07;18.30;68.70
46926;DHT22;32667;48.248;-1.700;2023-05-07T11:58:33;18.40;68.60
46926;DHT22;32667;48.248;-1.700;2023-05-07T12:00:59;18.50;68.60
46926;DHT22;32667;48.248;-1.700;2023-05-07T12:03:25;18.60;68.30
46926;DHT22;32667;48.248;-1.700;2023-05-07T12:05:51;18.90;68.00
46926;DHT22;32667;48.248;-1.700;2023-05-07T12:08:20;19.10;67.60
46926;DHT22;32667;48.248;-1.700;2023-05-07T12:10:50;19.30;67.20
46926;DHT22;32667;48.248;-1.700;2023-05-07T12:13:24;19.30;67.00
46926;DHT22;32667;48.248;-1.700;2023-05-07T12:15:54;19.40;67.00
46926;DHT22;32667;48.248;-1.700;2023-05-07T12:18:23;19.60;66.80
46926;DHT22;32667;48.248;-1.700;2023-05-07T12:20:50;19.60;66.70
46926;DHT22;32667;48.248;-1.700;2023-05-07T12:23:16;19.70;66.80
46926;DHT22;32667;48.248;-1.700;2023-05-07T12:25:45;19.70;66.70
46926;DHT22;32667;48.248;-1.700;2023-05-07T12:28:17;19.70;66.70
46926;DHT22;32667;48.248;-1.700;2023-05-07T12:30:44;19.70;66.80
46926;DHT22;32667;48.248;-1.700;2023-05-07T12:33:10;19.60;67.00
46926;DHT22;32667;48.248;-1.700;2023-05-07T12:35:45;19.60;67.20
46926;DHT22;32667;48.248;-1.700;2023-05-07T12:38:16;19.70;67.10
46926;DHT22;32667;48.248;-1.700;2023-05-07T12:40:53;19.80;67.00
46926;DHT22;32667;48.248;-1.700;2023-05-07T12:45:50;19.90;66.80
46926;DHT22;32667;48.248;-1.700;2023-05-07T12:48:16;19.90;66.90
46926;DHT22;32667;48.248;-1.700;2023-05-07T12:50:42;19.90;66.80
46926;DHT22;32667;48.248;-1.700;2023-05-07T12:53:12;20.00;67.40
46926;DHT22;32667;48.248;-1.700;2023-05-07T12:55:45;20.00;66.80
46926;DHT22;32667;48.248;-1.700;2023-05-07T13:00:52;20.10;66.80
46926;DHT22;32667;48.248;-1.700;2023-05-07T13:05:59;20.30;66.70
46926;DHT22;32667;48.248;-1.700;2023-05-07T13:08:30;20.40;66.60
46926;DHT22;32667;48.248;-1.700;2023-05-07T13:10:58;20.60;66.30
46926;DHT22;32667;48.248;-1.700;2023-05-07T13:13:25;20.90;66.00
46926;DHT22;32667;48.248;-1.700;2023-05-07T13:15:53;21.00;65.70
46926;DHT22;32667;48.248;-1.700;2023-05-07T13:18:21;21.00;65.60
46926;DHT22;32667;48.248;-1.700;2023-05-07T13:20:47;21.00;65.70
46926;DHT22;32667;48.248;-1.700;2023-05-07T13:23:15;21.00;65.90
46926;DHT22;32667;48.248;-1.700;2023-05-07T13:25:41;21.00;66.00
46926;DHT22;32667;48.248;-1.700;2023-05-07T13:28:07;20.90;66.10
46926;DHT22;32667;48.248;-1.700;2023-05-07T13:30:34;20.80;66.30
46926;DHT22;32667;48.248;-1.700;2023-05-07T13:33:00;20.80;66.50
46926;DHT22;32667;48.248;-1.700;2023-05-07T13:35:28;20.80;66.50
46926;DHT22;32667;48.248;-1.700;2023-05-07T13:37:54;20.90;66.50
46926;DHT22;32667;48.248;-1.700;2023-05-07T13:40:21;21.00;66.30
46926;DHT22;32667;48.248;-1.700;2023-05-07T13:42:48;21.10;66.10
46926;DHT22;32667;48.248;-1.700;2023-05-07T13:45:18;21.20;66.60
46926;DHT22;32667;48.248;-1.700;2023-05-07T13:47:47;21.30;66.00
46926;DHT22;32667;48.248;-1.700;2023-05-07T13:50:17;21.30;66.00
46926;DHT22;32667;48.248;-1.700;2023-05-07T13:52:45;21.40;66.00
46926;DHT22;32667;48.248;-1.700;2023-05-07T13:55:20;21.70;65.70
46926;DHT22;32667;48.248;-1.700;2023-05-07T13:57:57;21.80;65.30
46926;DHT22;32667;48.248;-1.700;2023-05-07T14:00:24;21.90;65.30
46926;DHT22;32667;48.248;-1.700;2023-05-07T14:02:49;21.90;65.40
46926;DHT22;32667;48.248;-1.700;2023-05-07T14:05:15;21.90;65.40
46926;DHT22;32667;48.248;-1.700;2023-05-07T14:07:46;21.80;65.60
46926;DHT22;32667;48.248;-1.700;2023-05-07T14:10:16;21.70;65.70
46926;DHT22;32667;48.248;-1.700;2023-05-07T14:12:46;21.60;66.00
46926;DHT22;32667;48.248;-1.700;2023-05-07T14:15:12;21.50;66.20
46926;DHT22;32667;48.248;-1.700;2023-05-07T14:17:37;21.50;66.40
46926;DHT22;32667;48.248;-1.700;2023-05-07T14:20:06;21.40;66.40
46926;DHT22;32667;48.248;-1.700;2023-05-07T14:22:32;21.40;66.50
46926;DHT22;32667;48.248;-1.700;2023-05-07T14:25:02;21.30;66.50
46926;DHT22;32667;48.248;-1.700;2023-05-07T14:27:30;21.30;66.60
46926;DHT22;32667;48.248;-1.700;2023-05-07T14:29:56;21.30;66.60
46926;DHT22;32667;48.248;-1.700;2023-05-07T14:32:22;21.20;66.70
46926;DHT22;32667;48.248;-1.700;2023-05-07T14:34:48;21.20;66.80
46926;DHT22;32667;48.248;-1.700;2023-05-07T14:37:14;21.10;67.00
46926;DHT22;32667;48.248;-1.700;2023-05-07T14:39:39;21.00;67.10
46926;DHT22;32667;48.248;-1.700;2023-05-07T14:42:05;21.00;67.10
46926;DHT22;32667;48.248;-1.700;2023-05-07T14:44:34;20.90;67.20
46926;DHT22;32667;48.248;-1.700;2023-05-07T14:47:00;20.80;67.40
46926;DHT22;32667;48.248;-1.700;2023-05-07T14:49:28;20.70;67.40
46926;DHT22;32667;48.248;-1.700;2023-05-07T14:51:54;20.70;67.40
46926;DHT22;32667;48.248;-1.700;2023-05-07T14:54:22;20.70;67.40
46926;DHT22;32667;48.248;-1.700;2023-05-07T14:56:47;20.70;67.40
46926;DHT22;32667;48.248;-1.700;2023-05-07T14:59:16;20.70;67.40
46926;DHT22;32667;48.248;-1.700;2023-05-07T15:01:49;20.70;67.40
46926;DHT22;32667;48.248;-1.700;2023-05-07T15:04:18;20.70;67.40
46926;DHT22;32667;48.248;-1.700;2023-05-07T15:06:46;20.70;67.30
46926;DHT22;32667;48.248;-1.700;2023-05-07T15:09:14;20.70;67.30
46926;DHT22;32667;48.248;-1.700;2023-05-07T15:11:40;20.70;67.40
46926;DHT22;32667;48.248;-1.700;2023-05-07T15:14:08;20.70;67.30
46926;DHT22;32667;48.248;-1.700;2023-05-07T15:16:34;20.80;67.10
46926;DHT22;32667;48.248;-1.700;2023-05-07T15:19:00;20.90;67.00
46926;DHT22;32667;48.248;-1.700;2023-05-07T15:21:29;21.00;66.70
46926;DHT22;32667;48.248;-1.700;2023-05-07T15:23:59;21.10;66.50
46926;DHT22;32667;48.248;-1.700;2023-05-07T15:26:28;21.20;66.50
46926;DHT22;32667;48.248;-1.700;2023-05-07T15:28:54;21.30;66.40
46926;DHT22;32667;48.248;-1.700;2023-05-07T15:31:25;21.40;66.30
46926;DHT22;32667;48.248;-1.700;2023-05-07T15:33:51;21.50;66.10
46926;DHT22;32667;48.248;-1.700;2023-05-07T15:36:20;21.70;65.80
46926;DHT22;32667;48.248;-1.700;2023-05-07T15:38:48;21.80;65.60
46926;DHT22;32667;48.248;-1.700;2023-05-07T15:41:16;21.90;65.50
46926;DHT22;32667;48.248;-1.700;2023-05-07T15:43:50;21.80;65.60
46926;DHT22;32667;48.248;-1.700;2023-05-07T15:46:24;21.70;65.80
46926;DHT22;32667;48.248;-1.700;2023-05-07T15:48:55;21.60;66.10
46926;DHT22;32667;48.248;-1.700;2023-05-07T15:51:21;21.40;66.30